Terminal Aerodrome Forecast
Issued by NWS Melbourne, FL

Current Version | Previous Version | Text Only | Print | Product List | Glossary On
Versions: 1 2 3 4 5 6 7 8 9 10 11 12 13 14 15 16 17 18 19 20
000
FTUS42 KMLB 291132
TAFDAB
TAF
KDAB 291132Z 2912/3012 15005KT P6SM SCT015 SCT020 BKN170
     FM291400 12011G18KT P6SM SCT025 BKN250
     FM300100 12006KT P6SM FEW020=

USA.gov is the U.S. government's official web portal to all federal, state and local government web resources and services.